createdAt,value
2022-10-02T00:01:59.879Z,5.20
2022-10-02T00:04:53.261Z,3.65
2022-10-02T00:07:59.237Z,4.70
2022-10-02T00:10:51.018Z,4.47
2022-10-02T00:13:48.138Z,3.92
2022-10-02T00:16:43.426Z,4.40
2022-10-02T00:19:29.673Z,3.60
2022-10-02T00:22:47.524Z,3.65
2022-10-02T00:25:42.424Z,3.35
2022-10-02T00:28:35.598Z,3.47
2022-10-02T00:31:39.386Z,3.17
2022-10-02T00:35:20.073Z,2.72
2022-10-02T00:38:06.156Z,2.55
2022-10-02T00:41:01.074Z,3.70
2022-10-02T00:44:14.551Z,3.45
2022-10-02T00:47:03.539Z,3.17
2022-10-02T00:50:24.242Z,3.08
2022-10-02T00:53:46.541Z,2.55
2022-10-02T00:57:00.344Z,3.58
2022-10-02T00:59:53.411Z,2.60
2022-10-02T01:02:57.884Z,3.03
2022-10-02T01:08:29.395Z,3.03
2022-10-02T01:11:15.374Z,2.45
2022-10-02T01:14:01.928Z,2.33
2022-10-02T01:16:48.536Z,2.55
2022-10-02T01:19:39.780Z,2.53
2022-10-02T01:22:45.724Z,2.20
2022-10-02T01:25:32.098Z,2.30
2022-10-02T01:28:18.614Z,1.98
2022-10-02T01:31:10.572Z,1.70
2022-10-02T01:33:56.469Z,2.17
2022-10-02T01:36:42.489Z,2.00
2022-10-02T01:39:29.471Z,2.08
2022-10-02T01:42:16.150Z,1.80
2022-10-02T01:45:05.261Z,2.70
2022-10-02T01:48:07.009Z,2.30
2022-10-02T01:51:01.790Z,2.45
2022-10-02T01:53:53.894Z,1.63
2022-10-02T01:56:39.901Z,2.35
2022-10-02T01:59:44.609Z,1.55
2022-10-02T02:05:46.618Z,1.90
2022-10-02T02:08:45.394Z,1.50
2022-10-02T02:11:31.869Z,1.40
2022-10-02T02:14:26.014Z,1.17
2022-10-02T02:17:14.433Z,1.15
2022-10-02T02:20:06.307Z,1.40
2022-10-02T02:22:58.448Z,1.95
2022-10-02T02:25:49.562Z,1.85
2022-10-02T02:28:38.016Z,1.60
2022-10-02T02:31:29.773Z,1.55
2022-10-02T02:34:20.392Z,1.67
2022-10-02T02:37:13.885Z,1.85
2022-10-02T02:40:07.715Z,1.83
2022-10-02T02:43:15.325Z,2.05
2022-10-02T02:46:09.579Z,1.98
2022-10-02T02:49:05.187Z,2.28
2022-10-02T02:51:52.401Z,1.38
2022-10-02T02:54:47.612Z,1.88
2022-10-02T02:57:58.822Z,1.67
2022-10-02T03:00:44.660Z,0.85
2022-10-02T03:03:30.686Z,1.15
2022-10-02T03:06:16.349Z,1.75
2022-10-02T03:09:02.621Z,1.63
2022-10-02T03:11:54.468Z,2.15
2022-10-02T03:14:55.449Z,1.65
2022-10-02T03:18:03.316Z,1.13
2022-10-02T03:21:10.737Z,1.10
2022-10-02T03:24:36.538Z,0.95
2022-10-02T03:27:34.028Z,0.50
2022-10-02T03:30:22.046Z,0.47
2022-10-02T03:33:09.071Z,0.80
2022-10-02T03:35:55.937Z,0.70
2022-10-02T03:38:42.895Z,0.80
2022-10-02T03:41:28.627Z,0.60
2022-10-02T03:44:14.492Z,0.40
2022-10-02T03:47:00.475Z,0.70
2022-10-02T03:49:46.556Z,0.60
2022-10-02T03:52:33.841Z,1.10
2022-10-02T03:55:37.655Z,0.55
2022-10-02T03:58:25.299Z,0.50
2022-10-02T04:01:14.300Z,0.47
2022-10-02T04:04:24.641Z,0.57
2022-10-02T04:07:25.055Z,0.50
2022-10-02T04:10:19.946Z,1.00
2022-10-02T04:13:32.153Z,0.40
2022-10-02T04:16:24.314Z,0.55
2022-10-02T04:19:19.017Z,0.70
2022-10-02T04:22:35.788Z,0.40
2022-10-02T04:25:25.780Z,0.40
2022-10-02T04:28:19.753Z,0.60
